Time;durP1;ratioP1;P1;durP2;ratioP2;P2;SDS_P1;SDS_P2;PMS_P1;PMS_P2;Temp;Humidity;BMP_temperature;BMP_pressure;BME280_temperature;BME280_humidity;BME280_pressure;Samples;Min_cycle;Max_cycle;Signal;HPM_P1;HPM_P2
2023/04/07 00:00:51;;;;;;;26.77;18.00;;;7.80;99.90;;;;;;5031550;28;20052;-78
2023/04/07 00:03:17;;;;;;;28.70;18.98;;;7.80;99.90;;;;;;5033894;28;20044;-78
2023/04/07 00:05:43;;;;;;;25.45;18.95;;;7.80;99.90;;;;;;5025338;28;20046;-79
2023/04/07 00:08:08;;;;;;;26.55;18.17;;;7.80;99.90;;;;;;5035948;28;20646;-79
2023/04/07 00:10:34;;;;;;;26.90;18.33;;;7.80;99.90;;;;;;5029667;28;20041;-79
2023/04/07 00:13:00;;;;;;;28.45;18.73;;;7.70;99.90;;;;;;5029725;28;20118;-78
2023/04/07 00:15:26;;;;;;;26.35;18.00;;;7.80;99.90;;;;;;5031455;28;20171;-78
2023/04/07 00:17:52;;;;;;;27.23;18.42;;;7.80;99.90;;;;;;5030992;28;20406;-79
2023/04/07 00:20:18;;;;;;;29.33;19.27;;;7.70;99.90;;;;;;5033103;28;20033;-79
2023/04/07 00:22:44;;;;;;;27.30;18.70;;;7.90;99.90;;;;;;5036237;28;20037;-79
2023/04/07 00:25:10;;;;;;;27.38;19.75;;;7.70;99.90;;;;;;5033825;28;20062;-79
2023/04/07 00:27:35;;;;;;;31.90;20.35;;;7.70;99.90;;;;;;5031094;28;20049;-78
2023/04/07 00:30:02;;;;;;;27.90;19.27;;;7.70;99.90;;;;;;5018540;28;20057;-78
2023/04/07 00:32:27;;;;;;;28.08;19.15;;;7.70;99.90;;;;;;5031554;28;20039;-79
2023/04/07 00:34:53;;;;;;;30.67;19.45;;;7.80;99.90;;;;;;5029939;28;20665;-79
2023/04/07 00:37:18;;;;;;;31.17;20.20;;;7.80;99.90;;;;;;5032427;28;20059;-79
2023/04/07 00:39:45;;;;;;;27.70;18.33;;;7.70;99.90;;;;;;5036023;28;20055;-79
2023/04/07 00:42:13;;;;;;;27.17;19.20;;;7.70;99.90;;;;;;5029108;28;20049;-78
2023/04/07 00:44:39;;;;;;;27.58;18.13;;;7.70;99.90;;;;;;5024570;28;20073;-78
2023/04/07 00:47:04;;;;;;;29.48;20.67;;;7.70;99.90;;;;;;5022118;28;20121;-79
2023/04/07 00:49:30;;;;;;;29.25;20.63;;;7.70;99.90;;;;;;5030251;28;20065;-79
2023/04/07 00:51:57;;;;;;;27.67;18.65;;;7.70;99.90;;;;;;5030370;28;20052;-79
2023/04/07 00:54:23;;;;;;;29.30;20.40;;;7.70;99.90;;;;;;5036085;28;20219;-78
2023/04/07 00:56:49;;;;;;;27.85;20.50;;;7.70;99.90;;;;;;5028830;28;20041;-78
2023/04/07 00:59:16;;;;;;;27.02;19.92;;;7.70;99.90;;;;;;5025598;28;20438;-79
2023/04/07 01:02:00;;;;;;;26.90;19.08;;;7.70;99.90;;;;;;5033879;28;20159;-79
2023/04/07 01:04:34;;;;;;;27.30;18.45;;;7.70;99.90;;;;;;5023138;28;20087;-79
2023/04/07 01:07:14;;;;;;;31.55;19.42;;;7.70;99.90;;;;;;5026507;28;20648;-79
2023/04/07 01:09:47;;;;;;;26.90;19.08;;;7.70;99.90;;;;;;5024285;28;20033;-79
2023/04/07 01:12:51;;;;;;;31.27;21.35;;;7.70;99.90;;;;;;5028244;28;20080;-78
2023/04/07 01:15:20;;;;;;;30.15;19.38;;;7.70;99.90;;;;;;5023135;28;20065;-79
2023/04/07 01:17:51;;;;;;;31.50;21.63;;;8.00;99.90;;;;;;5032277;28;20049;-79
2023/04/07 01:20:21;;;;;;;33.42;19.33;;;7.70;99.90;;;;;;5030307;28;20053;-79
2023/04/07 01:22:53;;;;;;;31.75;20.25;;;7.70;99.90;;;;;;5026010;28;20068;-79
2023/04/07 01:25:45;;;;;;;26.42;17.83;;;7.70;99.90;;;;;;5026949;28;20081;-79
2023/04/07 01:28:46;;;;;;;30.30;19.75;;;7.70;99.90;;;;;;5025770;28;20064;-79
2023/04/07 01:31:14;;;;;;;26.33;18.90;;;7.70;99.90;;;;;;5025113;28;20049;-79
2023/04/07 01:33:42;;;;;;;30.95;21.20;;;7.70;99.90;;;;;;5023926;28;20041;-79
2023/04/07 01:36:09;;;;;;;30.13;20.98;;;7.70;99.90;;;;;;5026901;28;20061;-79
2023/04/07 01:38:35;;;;;;;30.58;20.17;;;7.70;99.90;;;;;;5031457;28;20045;-79
2023/04/07 01:41:01;;;;;;;29.88;21.30;;;7.70;99.90;;;;;;5013516;28;20041;-79
2023/04/07 01:43:29;;;;;;;32.88;23.17;;;7.70;99.90;;;;;;5031273;28;20080;-79
2023/04/07 01:45:56;;;;;;;29.25;20.63;;;7.70;99.90;;;;;;5028350;28;20122;-79
2023/04/07 01:48:22;;;;;;;30.65;20.60;;;7.70;99.90;;;;;;5031437;28;20661;-79
2023/04/07 01:50:48;;;;;;;30.10;20.67;;;7.70;99.90;;;;;;5026124;28;20120;-79
2023/04/07 01:53:15;;;;;;;32.63;21.55;;;7.70;99.90;;;;;;5027428;28;20068;-79
2023/04/07 01:55:42;;;;;;;25.95;17.98;;;7.70;99.90;;;;;;5026048;28;20856;-78
2023/04/07 01:58:08;;;;;;;28.00;20.83;;;7.80;99.90;;;;;;5026525;28;20841;-79
2023/04/07 02:00:34;;;;;;;31.92;21.42;;;7.70;99.90;;;;;;5022462;28;20132;-78
2023/04/07 02:03:19;;;;;;;30.90;21.45;;;7.70;99.90;;;;;;5025062;28;20147;-79
2023/04/07 02:05:47;;;;;;;31.10;21.60;;;7.70;99.90;;;;;;5033456;28;21179;-79
2023/04/07 02:08:15;;;;;;;31.67;21.92;;;7.70;99.90;;;;;;5026445;28;20033;-79
2023/04/07 02:10:42;;;;;;;30.65;21.42;;;7.70;99.90;;;;;;5024866;28;20143;-79
2023/04/07 02:13:12;;;;;;;33.00;23.10;;;7.70;99.90;;;;;;5031372;28;20045;-78
2023/04/07 02:15:39;;;;;;;35.00;23.85;;;7.70;99.90;;;;;;5030048;28;20045;-79
2023/04/07 02:18:06;;;;;;;28.90;20.42;;;7.70;99.90;;;;;;5027424;28;20065;-79
2023/04/07 02:20:34;;;;;;;34.25;22.45;;;7.70;99.90;;;;;;5027724;28;20712;-78
2023/04/07 02:23:00;;;;;;;34.45;23.15;;;7.70;99.90;;;;;;5024122;28;20528;-79
2023/04/07 02:25:28;;;;;;;32.83;22.13;;;7.70;99.90;;;;;;5027726;28;20037;-79
2023/04/07 02:27:55;;;;;;;31.35;21.65;;;7.60;99.90;;;;;;5029526;28;20784;-78
2023/04/07 02:30:21;;;;;;;33.10;22.15;;;7.60;99.90;;;;;;5029091;28;20037;-79
2023/04/07 02:32:47;;;;;;;34.05;22.92;;;7.60;99.90;;;;;;5025305;28;20045;-78
2023/04/07 02:35:13;;;;;;;32.50;22.45;;;7.70;99.90;;;;;;5031242;28;20056;-78
2023/04/07 02:37:39;;;;;;;32.25;22.92;;;7.60;99.90;;;;;;5025155;28;20060;-78
2023/04/07 02:40:05;;;;;;;32.20;22.05;;;7.80;99.90;;;;;;5013605;28;20044;-78
2023/04/07 02:42:31;;;;;;;33.75;23.95;;;7.70;99.90;;;;;;5025651;28;20047;-79
2023/04/07 02:44:57;;;;;;;32.13;22.85;;;7.60;99.90;;;;;;5023555;28;20551;-79
2023/04/07 02:47:23;;;;;;;33.00;22.98;;;7.70;99.90;;;;;;5016010;28;20641;-78
2023/04/07 02:49:49;;;;;;;31.92;21.48;;;7.60;99.90;;;;;;5027713;28;20566;-78
2023/04/07 02:52:18;;;;;;;33.08;22.75;;;7.70;99.90;;;;;;5024980;28;20113;-79
2023/04/07 02:54:44;;;;;;;30.48;21.75;;;7.60;99.90;;;;;;5024885;28;20067;-79
2023/04/07 02:57:09;;;;;;;34.65;23.10;;;7.70;99.90;;;;;;5011987;28;20759;-79
2023/04/07 02:59:35;;;;;;;32.83;23.08;;;7.70;99.90;;;;;;5022967;28;20490;-79
2023/04/07 03:02:01;;;;;;;32.70;23.75;;;7.60;99.90;;;;;;5031600;28;20045;-79
2023/04/07 03:04:27;;;;;;;33.95;24.08;;;7.60;99.90;;;;;;5033892;28;20033;-79
2023/04/07 03:06:52;;;;;;;30.25;20.90;;;7.60;99.90;;;;;;5025491;28;20391;-79
2023/04/07 03:09:18;;;;;;;31.13;21.67;;;7.70;99.90;;;;;;5031940;28;20079;-79
2023/04/07 03:11:44;;;;;;;34.15;22.63;;;7.70;99.90;;;;;;5030048;28;20041;-79
2023/04/07 03:14:09;;;;;;;33.83;22.60;;;7.60;99.90;;;;;;5021418;28;20033;-79
2023/04/07 03:16:35;;;;;;;32.13;22.63;;;7.60;99.90;;;;;;5024504;28;20072;-79
2023/04/07 03:19:01;;;;;;;31.38;22.40;;;7.60;99.90;;;;;;5025857;28;20044;-78
2023/04/07 03:21:27;;;;;;;31.65;21.95;;;7.60;99.90;;;;;;5023155;28;20052;-78
2023/04/07 03:23:53;;;;;;;35.97;23.38;;;7.60;99.90;;;;;;5025151;28;20045;-79
2023/04/07 03:26:20;;;;;;;31.52;22.73;;;7.60;99.90;;;;;;5010834;28;20045;-79
2023/04/07 03:28:46;;;;;;;36.35;24.17;;;7.60;99.90;;;;;;5023759;28;20064;-79
2023/04/07 03:31:11;;;;;;;34.60;23.13;;;7.60;99.90;;;;;;5029440;28;20040;-79
2023/04/07 03:33:37;;;;;;;30.10;21.33;;;7.60;99.90;;;;;;5030468;28;20510;-78
2023/04/07 03:36:03;;;;;;;29.55;21.52;;;7.60;99.90;;;;;;5009201;28;20053;-78
2023/04/07 03:38:29;;;;;;;31.30;21.90;;;7.60;99.90;;;;;;5034157;28;20076;-79
2023/04/07 03:40:55;;;;;;;29.02;21.02;;;7.60;99.90;;;;;;5027152;28;20132;-79
2023/04/07 03:43:20;;;;;;;33.25;23.33;;;7.60;99.90;;;;;;5025548;28;20045;-79
2023/04/07 03:45:46;;;;;;;32.83;21.33;;;7.60;99.90;;;;;;5026333;28;20061;-78
2023/04/07 03:48:12;;;;;;;32.17;22.23;;;7.60;99.90;;;;;;5022300;28;20114;-78
2023/04/07 03:50:39;;;;;;;31.70;21.70;;;7.60;99.90;;;;;;5027901;28;20427;-79
2023/04/07 03:53:05;;;;;;;33.60;22.30;;;7.60;99.90;;;;;;5022984;28;20041;-78
2023/04/07 03:55:33;;;;;;;33.20;22.60;;;7.60;99.90;;;;;;5030398;28;20041;-79
2023/04/07 03:58:00;;;;;;;32.22;22.05;;;7.60;99.90;;;;;;5027473;28;20068;-79
2023/04/07 04:00:26;;;;;;;33.00;22.83;;;7.60;99.90;;;;;;5022253;28;20815;-79
2023/04/07 04:02:52;;;;;;;29.05;21.17;;;7.60;99.90;;;;;;5030431;28;20143;-79
2023/04/07 04:05:18;;;;;;;30.90;21.42;;;7.50;99.90;;;;;;5019831;28;20042;-79
2023/04/07 04:07:44;;;;;;;32.10;21.40;;;7.50;99.90;;;;;;5025958;28;20045;-79
2023/04/07 04:10:10;;;;;;;32.13;21.35;;;7.60;99.90;;;;;;5026057;28;20429;-79
2023/04/07 04:12:36;;;;;;;30.75;21.92;;;7.60;99.90;;;;;;5026885;28;20146;-79
2023/04/07 04:15:01;;;;;;;31.08;20.75;;;7.50;99.90;;;;;;5019398;28;20490;-79
2023/04/07 04:17:27;;;;;;;31.58;20.08;;;7.50;99.90;;;;;;5023687;28;20033;-79
2023/04/07 04:19:54;;;;;;;31.33;20.48;;;7.50;99.90;;;;;;5029636;28;20523;-79
2023/04/07 04:22:19;;;;;;;28.20;19.33;;;7.50;99.90;;;;;;5029427;28;20037;-79
2023/04/07 04:24:45;;;;;;;32.47;21.27;;;7.50;99.90;;;;;;5024714;28;20088;-79
2023/04/07 04:27:11;;;;;;;31.00;20.98;;;7.50;99.90;;;;;;5028127;28;20045;-79
2023/04/07 04:29:36;;;;;;;31.48;21.42;;;7.50;99.90;;;;;;5017454;28;20108;-79
2023/04/07 04:32:02;;;;;;;31.50;20.05;;;7.70;99.90;;;;;;5025598;28;20053;-79
2023/04/07 04:34:30;;;;;;;30.13;20.25;;;7.50;99.90;;;;;;5030608;28;20083;-79
2023/04/07 04:36:56;;;;;;;31.92;19.65;;;7.50;99.90;;;;;;5026240;28;20048;-79
2023/04/07 04:39:21;;;;;;;24.90;18.45;;;7.50;99.90;;;;;;5025774;28;20455;-78
2023/04/07 04:41:47;;;;;;;31.00;19.48;;;7.50;99.90;;;;;;5028153;28;20045;-79
2023/04/07 04:44:13;;;;;;;29.73;20.50;;;7.50;99.90;;;;;;5031867;28;20064;-79
2023/04/07 04:46:38;;;;;;;26.75;18.83;;;7.50;99.90;;;;;;5025363;28;20108;-79
2023/04/07 04:49:05;;;;;;;25.50;19.08;;;7.50;99.90;;;;;;5026383;28;20758;-81
2023/04/07 04:51:31;;;;;;;29.02;19.88;;;7.50;99.90;;;;;;5017740;28;20050;-79
2023/04/07 04:53:57;;;;;;;25.48;17.40;;;7.50;99.90;;;;;;5024194;28;20052;-79
2023/04/07 04:56:25;;;;;;;28.65;18.90;;;7.50;99.90;;;;;;5030100;28;20052;-79
2023/04/07 04:58:51;;;;;;;28.92;18.88;;;7.50;99.90;;;;;;5031483;28;20053;-79
2023/04/07 05:01:17;;;;;;;27.73;18.80;;;7.50;99.90;;;;;;5037687;28;20134;-79
2023/04/07 05:03:43;;;;;;;27.40;19.67;;;7.40;99.90;;;;;;5030549;28;20041;-79
2023/04/07 05:06:09;;;;;;;28.08;18.77;;;7.40;99.90;;;;;;5030586;28;20124;-81
2023/04/07 05:08:34;;;;;;;28.83;19.02;;;7.40;99.90;;;;;;5032752;28;20033;-82
2023/04/07 05:11:00;;;;;;;26.55;17.45;;;7.40;99.90;;;;;;5037269;28;20212;-81
2023/04/07 05:13:29;;;;;;;28.00;18.77;;;7.70;99.90;;;;;;5030963;28;20811;-80
2023/04/07 05:15:55;;;;;;;25.98;18.20;;;7.40;99.90;;;;;;5028254;28;20052;-80
2023/04/07 05:18:21;;;;;;;25.50;17.83;;;7.40;99.90;;;;;;5026991;28;20492;-81
2023/04/07 05:20:48;;;;;;;26.27;18.75;;;7.40;99.90;;;;;;5029670;28;20476;-81
2023/04/07 05:23:14;;;;;;;27.45;19.67;;;7.50;99.90;;;;;;5033111;28;20055;-82
2023/04/07 05:25:40;;;;;;;25.10;17.88;;;7.50;99.90;;;;;;5029056;28;20044;-82
2023/04/07 05:28:07;;;;;;;26.67;17.70;;;7.50;99.90;;;;;;5031319;28;20065;-86
2023/04/07 05:30:33;;;;;;;29.02;18.30;;;7.90;99.90;;;;;;5023697;28;20032;-83
2023/04/07 05:32:58;;;;;;;27.95;18.73;;;7.40;99.90;;;;;;5028350;28;20769;-81
2023/04/07 05:35:24;;;;;;;26.55;18.08;;;7.40;99.90;;;;;;5026273;28;20467;-80
2023/04/07 05:37:50;;;;;;;29.13;18.45;;;7.40;99.90;;;;;;5027571;28;20486;-79
2023/04/07 05:40:17;;;;;;;29.13;18.27;;;7.40;99.90;;;;;;5031507;28;20116;-80
2023/04/07 05:42:42;;;;;;;25.50;17.35;;;7.40;99.90;;;;;;5032619;28;20045;-81
2023/04/07 05:45:09;;;;;;;26.13;18.08;;;7.40;99.90;;;;;;5030756;28;20056;-81
2023/04/07 05:47:35;;;;;;;25.85;17.33;;;7.50;99.90;;;;;;5026869;28;20147;-80
2023/04/07 05:50:00;;;;;;;26.42;18.38;;;7.40;99.90;;;;;;5024705;28;20548;-81
2023/04/07 05:52:26;;;;;;;26.20;17.92;;;7.40;99.90;;;;;;5028695;28;20056;-81
2023/04/07 05:54:54;;;;;;;26.90;18.00;;;7.40;99.90;;;;;;5037098;28;20041;-81
2023/04/07 05:57:21;;;;;;;27.70;19.15;;;7.50;99.90;;;;;;5007920;28;20052;-80
2023/04/07 05:59:47;;;;;;;26.67;18.45;;;7.50;99.90;;;;;;5033931;28;20045;-81
2023/04/07 06:02:13;;;;;;;29.38;18.90;;;7.40;99.90;;;;;;5034795;28;20098;-80
2023/04/07 06:04:39;;;;;;;26.55;18.85;;;7.40;99.90;;;;;;5022316;28;20040;-81
2023/04/07 06:07:06;;;;;;;27.15;18.40;;;7.40;99.90;;;;;;5028880;28;20521;-80
2023/04/07 06:09:32;;;;;;;29.65;19.10;;;7.40;99.90;;;;;;5025105;28;20117;-82
2023/04/07 06:11:57;;;;;;;25.67;17.10;;;7.40;99.90;;;;;;5019916;28;20079;-80
2023/04/07 06:14:24;;;;;;;29.85;18.42;;;7.50;99.90;;;;;;5024970;28;20094;-80
2023/04/07 06:16:50;;;;;;;27.85;19.10;;;7.50;99.90;;;;;;5018409;28;20087;-80
2023/04/07 06:19:17;;;;;;;27.40;18.50;;;7.50;99.90;;;;;;5024915;28;20041;-79
2023/04/07 06:21:42;;;;;;;31.10;19.42;;;7.50;99.90;;;;;;5027733;28;20041;-80
2023/04/07 06:24:08;;;;;;;29.42;19.92;;;7.50;99.90;;;;;;5026961;28;20080;-81
2023/04/07 06:26:35;;;;;;;28.13;19.08;;;7.50;99.90;;;;;;5025907;28;20138;-82
2023/04/07 06:29:00;;;;;;;29.35;19.05;;;7.50;99.90;;;;;;5025663;28;20079;-80
2023/04/07 06:31:27;;;;;;;28.05;19.40;;;7.50;99.90;;;;;;5023797;28;20260;-79
2023/04/07 06:33:52;;;;;;;29.63;20.30;;;7.60;99.90;;;;;;5023823;28;20041;-80
2023/04/07 06:36:19;;;;;;;28.85;19.73;;;7.60;99.90;;;;;;5023813;28;20037;-79
2023/04/07 06:38:45;;;;;;;29.73;20.17;;;7.60;99.90;;;;;;5026820;28;20038;-78
2023/04/07 06:41:15;;;;;;;26.13;17.95;;;7.60;99.90;;;;;;5026260;28;20033;-80
2023/04/07 06:43:42;;;;;;;27.02;18.52;;;7.70;99.90;;;;;;5029444;28;20041;-81
2023/04/07 06:46:08;;;;;;;28.88;18.65;;;7.70;99.90;;;;;;5014365;28;20443;-80
2023/04/07 06:48:34;;;;;;;26.33;17.98;;;7.70;99.90;;;;;;5027586;28;20159;-78
2023/04/07 06:51:00;;;;;;;24.58;17.48;;;7.70;99.90;;;;;;5027532;28;20487;-80
2023/04/07 06:53:26;;;;;;;27.77;18.80;;;7.70;99.90;;;;;;5031478;28;20043;-81
2023/04/07 06:56:02;;;;;;;26.08;17.52;;;7.70;99.90;;;;;;5024751;28;20558;-81
2023/04/07 06:58:28;;;;;;;23.77;16.92;;;7.80;99.90;;;;;;5024849;28;20114;-81
2023/04/07 07:00:54;;;;;;;28.15;18.98;;;7.80;99.90;;;;;;5028844;28;20044;-82
2023/04/07 07:03:20;;;;;;;24.65;17.40;;;7.90;99.90;;;;;;5025753;28;20443;-81
2023/04/07 07:05:46;;;;;;;27.70;18.83;;;8.20;99.90;;;;;;5028582;28;20056;-81
2023/04/07 07:08:11;;;;;;;27.50;20.77;;;7.90;99.90;;;;;;5025382;28;20041;-81
2023/04/07 07:10:40;;;;;;;27.95;20.40;;;8.00;99.90;;;;;;5024436;28;20114;-80
2023/04/07 07:13:08;;;;;;;29.30;20.98;;;8.00;99.90;;;;;;5025579;28;20053;-81
2023/04/07 07:15:34;;;;;;;26.98;19.75;;;8.10;99.90;;;;;;5018673;28;20106;-81
2023/04/07 07:18:01;;;;;;;27.23;18.88;;;8.10;99.90;;;;;;5026317;28;20045;-81
2023/04/07 07:20:27;;;;;;;28.15;18.20;;;8.20;99.90;;;;;;5035293;28;20148;-81
2023/04/07 07:22:53;;;;;;;27.52;17.90;;;8.20;99.90;;;;;;5024525;28;20055;-81
2023/04/07 07:25:19;;;;;;;24.42;16.38;;;8.20;99.90;;;;;;5021951;28;20038;-81
2023/04/07 07:27:52;;;;;;;25.33;17.02;;;8.20;99.90;;;;;;5028295;28;20049;-82
2023/04/07 07:30:19;;;;;;;22.92;16.27;;;8.60;99.90;;;;;;5026196;28;20484;-82
2023/04/07 07:32:45;;;;;;;22.95;15.68;;;8.30;99.90;;;;;;5033597;28;20079;-82
2023/04/07 07:35:10;;;;;;;23.52;16.55;;;8.30;99.90;;;;;;5005708;28;20128;-82
2023/04/07 07:37:36;;;;;;;24.50;15.90;;;8.40;99.90;;;;;;5029760;28;20101;-83
2023/04/07 07:40:03;;;;;;;21.20;16.27;;;8.40;99.90;;;;;;5024280;28;20216;-82
2023/04/07 07:42:30;;;;;;;22.88;15.57;;;8.50;99.90;;;;;;5012265;28;20048;-82
2023/04/07 07:44:57;;;;;;;19.70;14.55;;;8.50;99.90;;;;;;5030570;28;20120;-82
2023/04/07 07:47:27;;;;;;;22.80;15.13;;;8.50;99.90;;;;;;5027777;28;20045;-81
2023/04/07 07:49:56;;;;;;;23.33;14.70;;;8.50;99.90;;;;;;5027307;28;21031;-82
2023/04/07 07:52:22;;;;;;;19.63;13.60;;;8.60;99.90;;;;;;5029515;28;20571;-82
2023/04/07 07:54:49;;;;;;;19.80;13.45;;;8.60;99.90;;;;;;5024088;28;20037;-82
2023/04/07 07:57:15;;;;;;;19.38;13.95;;;8.50;99.90;;;;;;5026145;28;20037;-82
2023/04/07 07:59:47;;;;;;;22.73;13.80;;;8.60;99.90;;;;;;5026514;28;20087;-82
2023/04/07 08:02:13;;;;;;;19.25;13.85;;;8.50;99.90;;;;;;5036215;28;20041;-81
2023/04/07 08:04:39;;;;;;;18.77;12.50;;;8.60;99.90;;;;;;4999408;28;20733;-81
2023/04/07 08:07:07;;;;;;;17.73;13.20;;;8.60;99.90;;;;;;5030701;28;20841;-81
2023/04/07 08:09:34;;;;;;;18.70;13.40;;;8.60;99.90;;;;;;5017390;28;20099;-80
2023/04/07 08:12:00;;;;;;;18.52;13.27;;;8.60;99.90;;;;;;5015412;28;20055;-84
2023/04/07 08:14:26;;;;;;;20.02;13.15;;;8.90;99.90;;;;;;5012757;28;20064;-85
2023/04/07 08:16:52;;;;;;;17.83;12.73;;;8.60;99.90;;;;;;5033888;28;20091;-80
2023/04/07 08:19:18;;;;;;;18.52;12.35;;;8.70;99.90;;;;;;5034033;28;20041;-80
2023/04/07 08:21:43;;;;;;;20.23;12.68;;;8.70;99.90;;;;;;5015635;28;20037;-79
2023/04/07 08:24:10;;;;;;;17.00;12.65;;;8.80;99.90;;;;;;5031596;28;20044;-80
2023/04/07 08:26:36;;;;;;;17.95;12.48;;;8.80;99.90;;;;;;5026346;28;20048;-81
2023/04/07 08:29:01;;;;;;;18.02;13.40;;;8.90;99.90;;;;;;5038052;28;20049;-80
2023/04/07 08:31:27;;;;;;;18.73;13.05;;;9.00;99.90;;;;;;5016866;28;20364;-80
2023/04/07 08:33:58;;;;;;;16.25;11.77;;;9.10;99.90;;;;;;5033821;28;20066;-80
2023/04/07 08:36:25;;;;;;;19.10;12.68;;;9.20;99.90;;;;;;5030263;28;20049;-79
2023/04/07 08:38:51;;;;;;;20.05;13.43;;;9.20;99.90;;;;;;5026506;28;20060;-80
2023/04/07 08:41:27;;;;;;;17.60;13.02;;;9.30;99.90;;;;;;5020480;28;20048;-80
2023/04/07 08:43:59;;;;;;;19.30;13.07;;;9.30;99.90;;;;;;5009636;28;20053;-80
2023/04/07 08:46:26;;;;;;;18.13;12.75;;;9.40;99.90;;;;;;5035650;28;20045;-80
2023/04/07 08:48:54;;;;;;;21.00;14.90;;;10.30;99.90;;;;;;5015911;28;20128;-80
2023/04/07 08:51:31;;;;;;;20.15;15.02;;;9.60;99.90;;;;;;5014070;28;20665;-81
2023/04/07 08:54:01;;;;;;;19.92;14.25;;;9.60;99.90;;;;;;5036630;28;20495;-80
2023/04/07 08:56:27;;;;;;;19.98;13.98;;;9.70;99.90;;;;;;5031818;28;20048;-80
2023/04/07 08:58:54;;;;;;;20.35;14.73;;;9.80;99.90;;;;;;5030242;28;20629;-79
2023/04/07 09:01:20;;;;;;;20.98;15.52;;;9.90;99.90;;;;;;5030491;28;20033;-80
2023/04/07 09:03:48;;;;;;;21.08;14.73;;;10.00;99.90;;;;;;5032195;28;20361;-79
2023/04/07 09:06:14;;;;;;;20.17;14.93;;;10.00;99.90;;;;;;5028064;28;20136;-79
2023/04/07 09:08:40;;;;;;;20.50;14.88;;;10.10;99.90;;;;;;5026747;28;20045;-79
2023/04/07 09:11:06;;;;;;;20.23;15.25;;;10.10;99.90;;;;;;5027902;28;20625;-81
2023/04/07 09:13:32;;;;;;;22.85;15.07;;;10.20;99.90;;;;;;5026425;28;20525;-79
2023/04/07 09:16:01;;;;;;;18.70;12.98;;;10.30;99.90;;;;;;5029398;28;20051;-82
2023/04/07 09:18:27;;;;;;;18.02;13.00;;;10.20;99.90;;;;;;5034571;28;20836;-83
2023/04/07 09:21:02;;;;;;;19.48;13.23;;;10.30;99.90;;;;;;5031476;28;20053;-82
2023/04/07 09:23:29;;;;;;;18.40;13.70;;;10.30;99.90;;;;;;5033164;28;21653;-80
2023/04/07 09:25:58;;;;;;;19.17;14.27;;;10.30;99.90;;;;;;5033706;28;20045;-82
2023/04/07 09:28:25;;;;;;;19.17;14.05;;;10.30;99.90;;;;;;5031078;28;20080;-82
2023/04/07 09:30:54;;;;;;;20.55;15.55;;;10.50;99.90;;;;;;5032263;28;20077;-82
2023/04/07 09:33:27;;;;;;;21.65;15.68;;;10.30;99.90;;;;;;5029940;28;20033;-82
2023/04/07 09:35:53;;;;;;;19.63;14.48;;;10.40;99.90;;;;;;5026913;28;20102;-83
2023/04/07 09:38:19;;;;;;;23.02;15.35;;;10.40;99.90;;;;;;5027725;28;20042;-83
2023/04/07 09:40:47;;;;;;;19.45;14.85;;;10.40;99.90;;;;;;5028399;28;20051;-84
2023/04/07 09:43:18;;;;;;;18.60;14.45;;;10.40;99.90;;;;;;5033626;28;20511;-83
2023/04/07 09:45:43;;;;;;;17.90;13.68;;;10.40;99.90;;;;;;5027253;28;20043;-83
2023/04/07 09:48:20;;;;;;;20.60;14.52;;;10.30;99.90;;;;;;5026563;28;20051;-83
2023/04/07 09:50:50;;;;;;;17.98;13.63;;;10.30;99.90;;;;;;5029964;28;20560;-83
2023/04/07 09:53:18;;;;;;;20.13;14.23;;;10.30;99.90;;;;;;5033465;28;20117;-82
2023/04/07 09:55:45;;;;;;;19.45;14.35;;;10.20;99.90;;;;;;5015647;28;20049;-82
2023/04/07 09:58:15;;;;;;;19.63;13.60;;;10.20;99.90;;;;;;5017563;28;20053;-82
2023/04/07 10:00:41;;;;;;;17.88;13.20;;;10.30;99.90;;;;;;5025918;28;20045;-83
2023/04/07 10:03:07;;;;;;;18.33;13.35;;;10.70;99.90;;;;;;5024589;28;20039;-83
2023/04/07 10:05:37;;;;;;;17.35;12.73;;;10.20;99.90;;;;;;5029827;28;20045;-83
2023/04/07 10:08:05;;;;;;;16.25;12.73;;;10.20;99.90;;;;;;5027423;28;20051;-83
2023/04/07 10:10:42;;;;;;;16.02;10.90;;;10.20;99.90;;;;;;5030010;28;20037;-83
2023/04/07 10:13:07;;;;;;;14.55;10.60;;;10.30;99.90;;;;;;5019994;28;20037;-83
2023/04/07 10:15:35;;;;;;;14.50;10.80;;;10.40;99.90;;;;;;5028060;28;20376;-83
2023/04/07 10:18:06;;;;;;;12.52;8.88;;;10.50;99.90;;;;;;5030478;28;20056;-82
2023/04/07 10:20:32;;;;;;;14.85;9.60;;;10.60;99.90;;;;;;5011941;28;20060;-83
2023/04/07 10:23:08;;;;;;;12.25;8.95;;;10.60;99.90;;;;;;5032478;28;20036;-83
2023/04/07 10:25:36;;;;;;;13.95;9.32;;;10.60;99.90;;;;;;5033754;28;20506;-82
2023/04/07 10:28:08;;;;;;;13.30;9.88;;;10.70;99.90;;;;;;5033456;28;20637;-82
2023/04/07 10:30:35;;;;;;;12.88;9.63;;;10.70;99.90;;;;;;5029975;28;20053;-82
2023/04/07 10:33:01;;;;;;;14.77;9.98;;;10.80;99.90;;;;;;5031197;28;20044;-83
2023/04/07 10:35:28;;;;;;;13.05;9.75;;;10.80;99.90;;;;;;5026600;28;20043;-83
2023/04/07 10:38:12;;;;;;;15.27;10.32;;;10.80;99.90;;;;;;5031778;28;20048;-82
2023/04/07 10:40:39;;;;;;;16.00;11.20;;;10.80;99.90;;;;;;5030642;28;20040;-81
2023/04/07 10:43:10;;;;;;;18.08;11.50;;;10.70;99.90;;;;;;5030557;28;20037;-80
2023/04/07 10:45:45;;;;;;;16.17;11.25;;;10.70;99.90;;;;;;5029321;28;20045;-81
2023/04/07 10:48:12;;;;;;;18.48;12.02;;;10.60;99.90;;;;;;5030122;28;20555;-80
2023/04/07 10:50:38;;;;;;;16.42;11.90;;;10.60;99.90;;;;;;5026228;28;20111;-81
2023/04/07 10:53:07;;;;;;;16.33;11.98;;;10.70;99.90;;;;;;5027766;28;20069;-81
2023/04/07 10:55:43;;;;;;;17.08;12.00;;;10.70;99.90;;;;;;5025073;28;20052;-80
2023/04/07 10:58:15;;;;;;;14.70;10.75;;;10.70;99.90;;;;;;5005420;28;20052;-81
2023/04/07 11:00:41;;;;;;;17.92;12.55;;;10.70;99.90;;;;;;5019842;28;20395;-81
2023/04/07 11:03:13;;;;;;;15.75;11.43;;;10.70;99.90;;;;;;5025600;28;20082;-81
2023/04/07 11:05:42;;;;;;;14.95;10.80;;;10.80;99.90;;;;;;5021599;28;20061;-80
2023/04/07 11:08:08;;;;;;;15.43;10.95;;;11.00;99.90;;;;;;5026236;28;20126;-81
2023/04/07 11:10:34;;;;;;;18.02;11.93;;;11.10;99.90;;;;;;5028744;28;20049;-81
2023/04/07 11:13:05;;;;;;;15.77;11.15;;;11.20;99.90;;;;;;5023091;28;20052;-81
2023/04/07 11:15:33;;;;;;;13.40;10.85;;;11.20;99.90;;;;;;5029565;28;20037;-80
2023/04/07 11:18:16;;;;;;;15.25;11.00;;;11.20;99.90;;;;;;5027663;28;20165;-81
2023/04/07 11:20:46;;;;;;;16.40;11.07;;;11.20;99.90;;;;;;5028409;28;20045;-81
2023/04/07 11:23:13;;;;;;;16.27;11.68;;;11.20;99.90;;;;;;5023284;28;20076;-81
2023/04/07 11:25:42;;;;;;;13.57;10.07;;;11.20;99.90;;;;;;5026171;28;20038;-81
2023/04/07 11:28:10;;;;;;;15.02;10.70;;;11.30;99.90;;;;;;5026522;28;20049;-81
2023/04/07 11:30:36;;;;;;;14.32;10.45;;;11.40;99.90;;;;;;5026695;28;20037;-81
2023/04/07 11:33:02;;;;;;;16.35;10.55;;;11.40;99.90;;;;;;5019949;28;20103;-81
2023/04/07 11:35:28;;;;;;;13.98;10.70;;;11.50;99.90;;;;;;5028056;28;20052;-80
2023/04/07 11:37:59;;;;;;;15.25;10.07;;;11.60;99.90;;;;;;5027982;28;20047;-80
2023/04/07 11:40:36;;;;;;;13.60;9.75;;;11.70;99.90;;;;;;5022135;28;20068;-80
2023/04/07 11:43:13;;;;;;;12.85;8.98;;;11.70;99.90;;;;;;5025139;28;20041;-80
2023/04/07 11:45:39;;;;;;;13.00;8.90;;;11.70;99.90;;;;;;5021133;28;20045;-81
2023/04/07 11:48:24;;;;;;;12.27;8.55;;;11.70;99.90;;;;;;5033856;28;20048;-79
2023/04/07 11:50:50;;;;;;;13.27;8.52;;;11.70;99.90;;;;;;5023609;28;20069;-81
2023/04/07 11:53:25;;;;;;;10.25;7.45;;;11.80;99.90;;;;;;5028953;28;20148;-80
2023/04/07 11:56:02;;;;;;;11.02;7.43;;;11.90;99.90;;;;;;5026736;28;20053;-80
2023/04/07 11:58:28;;;;;;;11.15;7.20;;;12.00;99.90;;;;;;5024519;28;20041;-80
2023/04/07 12:00:55;;;;;;;10.73;7.47;;;12.10;99.90;;;;;;5023999;28;20049;-80
2023/04/07 12:03:22;;;;;;;11.02;8.45;;;12.20;99.90;;;;;;5022872;28;20536;-80
2023/04/07 12:05:47;;;;;;;11.10;8.20;;;12.40;99.90;;;;;;5027339;28;20049;-80
2023/04/07 12:08:15;;;;;;;10.45;7.13;;;12.50;99.90;;;;;;5024929;28;20566;-80
2023/04/07 12:10:41;;;;;;;9.68;6.95;;;12.70;99.90;;;;;;5025425;28;20216;-81
2023/04/07 12:13:08;;;;;;;10.55;8.02;;;12.70;99.90;;;;;;5020139;28;20501;-81
2023/04/07 12:15:35;;;;;;;11.30;7.95;;;12.70;99.90;;;;;;5025703;28;20053;-80
2023/04/07 12:18:02;;;;;;;12.23;8.52;;;12.80;99.90;;;;;;5022771;28;20558;-81
2023/04/07 12:20:28;;;;;;;10.25;7.80;;;12.80;99.90;;;;;;5005916;28;20629;-80
2023/04/07 12:22:53;;;;;;;11.48;7.93;;;12.80;99.90;;;;;;5023206;28;20049;-80
2023/04/07 12:25:19;;;;;;;10.85;7.97;;;12.80;99.90;;;;;;5025409;28;20046;-81
2023/04/07 12:27:44;;;;;;;10.05;7.25;;;12.80;99.90;;;;;;5024906;28;20545;-80
2023/04/07 12:30:11;;;;;;;9.93;7.32;;;12.80;99.90;;;;;;5025792;28;20111;-80
2023/04/07 12:32:37;;;;;;;11.27;7.82;;;12.90;99.90;;;;;;5031433;28;20514;-80
2023/04/07 12:35:04;;;;;;;9.02;7.07;;;13.00;99.90;;;;;;5025691;28;20140;-80
2023/04/07 12:37:30;;;;;;;11.88;7.75;;;13.00;99.90;;;;;;5023408;28;20051;-80